Terminal Aerodrome Forecast
Issued by NWS

Home | Current Version | Previous Version | Text Only | Print | Product List | Glossary On
Versions: 1 2 3 4 5 6 7 8 9 10 11 12 13 14 15 16
154
FTUS41 KAKQ 291946 AAA
TAFPHF
TAF AMD
KPHF 291946Z 2920/3018 08007KT P6SM -SHRA SCT020 BKN045
      TEMPO 2920/2923 3SM SHRA BKN020
     FM292300 12007KT 5SM -SHRA BKN025 BKN050
     FM300500 16004KT 3SM -RA BR OVC015
     FM301000 18003KT 2SM -RA BR OVC007=

USA.gov is the U.S. government's official web portal to all federal, state and local government web resources and services.